Time;durP1;ratioP1;P1;durP2;ratioP2;P2;SDS_P1;SDS_P2;PMS_P1;PMS_P2;Temp;Humidity;BMP_temperature;BMP_pressure;BME280_temperature;BME280_humidity;BME280_pressure;Samples;Min_cycle;Max_cycle;Signal;HPM_P1;HPM_P2
2022/03/29 00:00:00;;;;;;;20.2;17.5;;;;;;;10.8;100.0;101420;;;;
2022/03/29 00:01:00;;;;;;;20.2;17.5;;;;;;;10.8;100.0;101420;;;;
2022/03/29 00:02:00;;;;;;;20.2;17.5;;;;;;;10.8;100.0;101420;;;;
2022/03/29 00:03:00;;;;;;;20.2;17.5;;;;;;;10.5;100.0;101420;;;;
2022/03/29 00:04:00;;;;;;;20.2;17.5;;;;;;;10.5;100.0;101420;;;;
2022/03/29 00:05:04;;;;;;;20.2;17.5;;;;;;;10.5;100.0;101420;;;;
2022/03/29 00:06:00;;;;;;;20.2;17.5;;;;;;;10.5;100.0;101420;;;;
2022/03/29 00:07:00;;;;;;;20.2;17.5;;;;;;;10.5;100.0;101420;;;;
2022/03/29 00:08:00;;;;;;;20.2;17.5;;;;;;;10.5;100.0;101420;;;;
2022/03/29 00:09:00;;;;;;;20.2;17.5;;;;;;;10.4;100.0;101420;;;;
2022/03/29 00:10:04;;;;;;;20.2;17.5;;;;;;;10.4;100.0;101420;;;;
2022/03/29 00:11:00;;;;;;;20.2;17.5;;;;;;;10.2;100.0;101420;;;;
2022/03/29 00:12:00;;;;;;;20.2;17.5;;;;;;;10.2;100.0;101420;;;;
2022/03/29 00:13:00;;;;;;;20.2;17.5;;;;;;;10.2;100.0;101420;;;;
2022/03/29 00:14:02;;;;;;;20.2;17.5;;;;;;;10.2;100.0;101420;;;;
2022/03/29 00:15:00;;;;;;;20.2;17.5;;;;;;;10.2;100.0;101410;;;;
2022/03/29 00:16:00;;;;;;;20.2;17.5;;;;;;;10.2;100.0;101410;;;;
2022/03/29 00:17:00;;;;;;;20.2;17.5;;;;;;;10.2;100.0;101410;;;;
2022/03/29 00:18:00;;;;;;;20.2;17.5;;;;;;;10.2;100.0;101410;;;;
2022/03/29 00:19:00;;;;;;;21.9;19.6;;;;;;;10.1;100.0;101410;;;;
2022/03/29 00:20:00;;;;;;;21.9;19.6;;;;;;;10.1;100.0;101410;;;;
2022/03/29 00:21:00;;;;;;;21.9;19.6;;;;;;;10.1;100.0;101410;;;;
2022/03/29 00:22:00;;;;;;;21.9;19.6;;;;;;;10.1;100.0;101410;;;;
2022/03/29 00:23:00;;;;;;;21.9;19.6;;;;;;;10.0;100.0;101410;;;;
2022/03/29 00:24:00;;;;;;;21.9;19.6;;;;;;;10.0;100.0;101410;;;;
2022/03/29 00:25:00;;;;;;;21.9;19.6;;;;;;;10.1;100.0;101410;;;;
2022/03/29 00:26:00;;;;;;;21.9;19.6;;;;;;;10.1;100.0;101410;;;;
2022/03/29 00:27:00;;;;;;;21.9;19.6;;;;;;;9.9;100.0;101400;;;;
2022/03/29 00:28:00;;;;;;;21.9;19.6;;;;;;;9.9;100.0;101400;;;;
2022/03/29 00:29:00;;;;;;;21.9;19.6;;;;;;;9.8;100.0;101400;;;;
2022/03/29 00:30:00;;;;;;;21.9;19.6;;;;;;;9.8;100.0;101400;;;;
2022/03/29 00:31:00;;;;;;;21.9;19.6;;;;;;;9.8;100.0;101400;;;;
2022/03/29 00:32:00;;;;;;;21.9;19.6;;;;;;;9.8;100.0;101400;;;;
2022/03/29 00:33:00;;;;;;;21.9;19.6;;;;;;;9.9;100.0;101400;;;;
2022/03/29 00:34:00;;;;;;;21.9;19.6;;;;;;;9.9;100.0;101400;;;;
2022/03/29 00:35:00;;;;;;;21.9;19.6;;;;;;;9.7;100.0;101400;;;;
2022/03/29 00:36:00;;;;;;;21.9;19.6;;;;;;;9.7;100.0;101400;;;;
2022/03/29 00:37:00;;;;;;;21.9;19.6;;;;;;;9.8;100.0;101400;;;;
2022/03/29 00:38:00;;;;;;;21.9;19.6;;;;;;;9.8;100.0;101400;;;;
2022/03/29 00:39:00;;;;;;;25.1;21.9;;;;;;;9.8;100.0;101390;;;;
2022/03/29 00:40:00;;;;;;;25.1;21.9;;;;;;;9.8;100.0;101390;;;;
2022/03/29 00:41:00;;;;;;;25.1;21.9;;;;;;;9.7;100.0;101390;;;;
2022/03/29 00:42:00;;;;;;;25.1;21.9;;;;;;;9.7;100.0;101390;;;;
2022/03/29 00:43:00;;;;;;;25.1;21.9;;;;;;;9.5;100.0;101390;;;;
2022/03/29 00:44:00;;;;;;;25.1;21.9;;;;;;;9.5;100.0;101390;;;;
2022/03/29 00:45:00;;;;;;;25.1;21.9;;;;;;;9.6;100.0;101390;;;;
2022/03/29 00:46:00;;;;;;;25.1;21.9;;;;;;;9.6;100.0;101390;;;;
2022/03/29 00:47:00;;;;;;;25.1;21.9;;;;;;;9.6;100.0;101380;;;;
2022/03/29 00:48:01;;;;;;;25.1;21.9;;;;;;;9.6;100.0;101380;;;;
2022/03/29 00:49:00;;;;;;;25.1;21.9;;;;;;;9.5;100.0;101380;;;;
2022/03/29 00:50:00;;;;;;;25.1;21.9;;;;;;;9.5;100.0;101380;;;;
2022/03/29 00:51:00;;;;;;;25.1;21.9;;;;;;;9.5;100.0;101380;;;;
2022/03/29 00:52:01;;;;;;;25.1;21.9;;;;;;;9.5;100.0;101380;;;;
2022/03/29 00:53:00;;;;;;;25.1;21.9;;;;;;;9.4;100.0;101370;;;;
2022/03/29 00:54:00;;;;;;;25.1;21.9;;;;;;;9.4;100.0;101370;;;;
2022/03/29 00:55:00;;;;;;;25.1;21.9;;;;;;;9.4;100.0;101370;;;;
2022/03/29 00:56:02;;;;;;;25.1;21.9;;;;;;;9.4;100.0;101370;;;;
2022/03/29 00:57:01;;;;;;;25.1;21.9;;;;;;;9.3;100.0;101370;;;;
2022/03/29 00:58:03;;;;;;;25.1;21.9;;;;;;;9.3;100.0;101370;;;;
2022/03/29 00:59:00;;;;;;;26.9;24.0;;;;;;;9.3;100.0;101370;;;;
2022/03/29 01:00:01;;;;;;;26.9;24.0;;;;;;;9.3;100.0;101370;;;;
2022/03/29 01:01:01;;;;;;;26.9;24.0;;;;;;;9.2;100.0;101370;;;;
2022/03/29 01:02:00;;;;;;;26.9;24.0;;;;;;;9.2;100.0;101370;;;;
2022/03/29 01:03:03;;;;;;;26.9;24.0;;;;;;;9.3;100.0;101370;;;;
2022/03/29 01:04:00;;;;;;;26.9;24.0;;;;;;;9.3;100.0;101370;;;;
2022/03/29 01:05:00;;;;;;;26.9;24.0;;;;;;;9.1;100.0;101370;;;;
2022/03/29 01:06:00;;;;;;;26.9;24.0;;;;;;;9.1;100.0;101370;;;;
2022/03/29 01:07:00;;;;;;;26.9;24.0;;;;;;;9.0;100.0;101360;;;;
2022/03/29 01:08:00;;;;;;;26.9;24.0;;;;;;;9.0;100.0;101360;;;;
2022/03/29 01:09:00;;;;;;;26.9;24.0;;;;;;;9.2;100.0;101370;;;;
2022/03/29 01:10:01;;;;;;;26.9;24.0;;;;;;;9.2;100.0;101370;;;;
2022/03/29 01:11:00;;;;;;;26.9;24.0;;;;;;;9.1;100.0;101370;;;;
2022/03/29 01:12:00;;;;;;;26.9;24.0;;;;;;;9.1;100.0;101370;;;;
2022/03/29 01:13:00;;;;;;;26.9;24.0;;;;;;;9.1;100.0;101360;;;;
2022/03/29 01:14:00;;;;;;;26.9;24.0;;;;;;;9.1;100.0;101360;;;;
2022/03/29 01:15:04;;;;;;;26.9;24.0;;;;;;;9.1;100.0;101360;;;;
2022/03/29 01:17:38;;;;;;;26.9;24.0;;;;;;;9.1;100.0;101360;;;;
2022/03/29 01:18:01;;;;;;;26.9;24.0;;;;;;;9.0;100.0;101360;;;;
2022/03/29 01:19:00;;;;;;;31.3;27.0;;;;;;;8.9;100.0;101350;;;;
2022/03/29 01:20:00;;;;;;;31.3;27.0;;;;;;;8.9;100.0;101350;;;;
2022/03/29 01:21:01;;;;;;;31.3;27.0;;;;;;;8.9;100.0;101350;;;;
2022/03/29 01:22:01;;;;;;;31.3;27.0;;;;;;;8.9;100.0;101350;;;;
2022/03/29 01:23:00;;;;;;;31.3;27.0;;;;;;;8.8;100.0;101350;;;;
2022/03/29 01:24:00;;;;;;;31.3;27.0;;;;;;;8.8;100.0;101350;;;;
2022/03/29 01:25:00;;;;;;;31.3;27.0;;;;;;;8.8;100.0;101350;;;;
2022/03/29 01:26:00;;;;;;;31.3;27.0;;;;;;;8.8;100.0;101350;;;;
2022/03/29 01:27:01;;;;;;;31.3;27.0;;;;;;;8.8;100.0;101350;;;;
2022/03/29 01:28:01;;;;;;;31.3;27.0;;;;;;;8.8;100.0;101350;;;;
2022/03/29 01:29:00;;;;;;;31.3;27.0;;;;;;;8.8;100.0;101340;;;;
2022/03/29 01:30:00;;;;;;;31.3;27.0;;;;;;;8.8;100.0;101340;;;;
2022/03/29 01:31:00;;;;;;;31.3;27.0;;;;;;;8.8;100.0;101340;;;;
2022/03/29 01:32:04;;;;;;;31.3;27.0;;;;;;;8.8;100.0;101340;;;;
2022/03/29 01:33:01;;;;;;;31.3;27.0;;;;;;;8.8;100.0;101340;;;;
2022/03/29 01:34:00;;;;;;;31.3;27.0;;;;;;;8.8;100.0;101340;;;;
2022/03/29 01:35:01;;;;;;;31.3;27.0;;;;;;;8.6;100.0;101340;;;;
2022/03/29 01:36:00;;;;;;;31.3;27.0;;;;;;;8.6;100.0;101340;;;;
2022/03/29 01:37:00;;;;;;;31.3;27.0;;;;;;;8.7;100.0;101340;;;;
2022/03/29 01:38:00;;;;;;;31.3;27.0;;;;;;;8.7;100.0;101340;;;;
2022/03/29 01:39:00;;;;;;;36.1;31.0;;;;;;;8.8;100.0;101340;;;;
2022/03/29 01:40:04;;;;;;;36.1;31.0;;;;;;;8.8;100.0;101340;;;;
2022/03/29 01:41:03;;;;;;;36.1;31.0;;;;;;;8.8;100.0;101340;;;;
2022/03/29 01:42:00;;;;;;;36.1;31.0;;;;;;;8.8;100.0;101340;;;;
2022/03/29 01:43:01;;;;;;;36.1;31.0;;;;;;;8.8;100.0;101330;;;;
2022/03/29 01:44:00;;;;;;;36.1;31.0;;;;;;;8.8;100.0;101330;;;;
2022/03/29 01:45:00;;;;;;;36.1;31.0;;;;;;;8.7;100.0;101330;;;;
2022/03/29 01:46:00;;;;;;;36.1;31.0;;;;;;;8.7;100.0;101330;;;;
2022/03/29 01:47:00;;;;;;;36.1;31.0;;;;;;;8.7;100.0;101330;;;;
2022/03/29 01:48:00;;;;;;;36.1;31.0;;;;;;;8.7;100.0;101330;;;;
2022/03/29 01:49:00;;;;;;;36.1;31.0;;;;;;;8.8;100.0;101330;;;;
2022/03/29 01:50:00;;;;;;;36.1;31.0;;;;;;;8.8;100.0;101330;;;;
2022/03/29 01:51:00;;;;;;;36.1;31.0;;;;;;;8.7;100.0;101330;;;;
2022/03/29 01:52:00;;;;;;;36.1;31.0;;;;;;;8.7;100.0;101330;;;;
2022/03/29 01:53:00;;;;;;;36.1;31.0;;;;;;;8.6;100.0;101330;;;;
2022/03/29 01:54:02;;;;;;;36.1;31.0;;;;;;;8.6;100.0;101330;;;;
2022/03/29 01:55:00;;;;;;;36.1;31.0;;;;;;;8.5;100.0;101320;;;;
2022/03/29 01:56:00;;;;;;;36.1;31.0;;;;;;;8.5;100.0;101320;;;;
2022/03/29 01:57:00;;;;;;;36.1;31.0;;;;;;;8.6;100.0;101320;;;;
2022/03/29 01:58:00;;;;;;;36.1;31.0;;;;;;;8.6;100.0;101320;;;;
2022/03/29 01:59:04;;;;;;;39.4;34.4;;;;;;;8.6;100.0;101320;;;;
2022/03/29 02:01:00;;;;;;;39.4;34.4;;;;;;;8.6;100.0;101320;;;;
2022/03/29 02:02:00;;;;;;;39.4;34.4;;;;;;;8.6;100.0;101320;;;;
2022/03/29 02:03:02;;;;;;;39.4;34.4;;;;;;;8.6;100.0;101320;;;;
2022/03/29 02:04:00;;;;;;;39.4;34.4;;;;;;;8.6;100.0;101320;;;;
2022/03/29 02:05:00;;;;;;;39.4;34.4;;;;;;;8.5;100.0;101310;;;;
2022/03/29 02:06:00;;;;;;;39.4;34.4;;;;;;;8.5;100.0;101310;;;;
2022/03/29 02:07:00;;;;;;;39.4;34.4;;;;;;;8.5;100.0;101320;;;;
2022/03/29 02:08:00;;;;;;;39.4;34.4;;;;;;;8.5;100.0;101320;;;;
2022/03/29 02:09:00;;;;;;;39.4;34.4;;;;;;;8.4;100.0;101310;;;;
2022/03/29 02:10:00;;;;;;;39.4;34.4;;;;;;;8.4;100.0;101310;;;;
2022/03/29 02:11:00;;;;;;;39.4;34.4;;;;;;;8.4;100.0;101310;;;;
2022/03/29 02:12:01;;;;;;;39.4;34.4;;;;;;;8.4;100.0;101310;;;;
2022/03/29 02:13:00;;;;;;;39.4;34.4;;;;;;;8.5;100.0;101310;;;;
2022/03/29 02:14:00;;;;;;;39.4;34.4;;;;;;;8.5;100.0;101310;;;;
2022/03/29 02:15:00;;;;;;;39.4;34.4;;;;;;;8.5;100.0;101310;;;;
2022/03/29 02:16:00;;;;;;;39.4;34.4;;;;;;;8.5;100.0;101310;;;;
2022/03/29 02:17:00;;;;;;;39.4;34.4;;;;;;;8.4;100.0;101310;;;;
2022/03/29 02:18:00;;;;;;;39.4;34.4;;;;;;;8.4;100.0;101310;;;;
2022/03/29 02:19:00;;;;;;;39.6;35.3;;;;;;;8.5;100.0;101310;;;;
2022/03/29 02:20:00;;;;;;;39.6;35.3;;;;;;;8.5;100.0;101310;;;;
2022/03/29 02:21:00;;;;;;;39.6;35.3;;;;;;;8.4;100.0;101310;;;;
2022/03/29 02:22:00;;;;;;;39.6;35.3;;;;;;;8.4;100.0;101310;;;;
2022/03/29 02:23:01;;;;;;;39.6;35.3;;;;;;;8.4;100.0;101300;;;;
2022/03/29 02:24:00;;;;;;;39.6;35.3;;;;;;;8.4;100.0;101300;;;;
2022/03/29 02:25:00;;;;;;;39.6;35.3;;;;;;;8.3;100.0;101300;;;;
2022/03/29 02:26:00;;;;;;;39.6;35.3;;;;;;;8.3;100.0;101300;;;;
2022/03/29 02:27:00;;;;;;;39.6;35.3;;;;;;;8.4;100.0;101290;;;;
2022/03/29 02:28:00;;;;;;;39.6;35.3;;;;;;;8.4;100.0;101290;;;;
2022/03/29 02:29:00;;;;;;;39.6;35.3;;;;;;;8.4;100.0;101290;;;;
2022/03/29 02:30:02;;;;;;;39.6;35.3;;;;;;;8.4;100.0;101290;;;;
2022/03/29 02:31:00;;;;;;;39.6;35.3;;;;;;;8.3;100.0;101280;;;;
2022/03/29 02:32:00;;;;;;;39.6;35.3;;;;;;;8.3;100.0;101280;;;;
2022/03/29 02:33:01;;;;;;;39.6;35.3;;;;;;;8.3;100.0;101280;;;;
2022/03/29 02:34:00;;;;;;;39.6;35.3;;;;;;;8.3;100.0;101280;;;;
2022/03/29 02:35:00;;;;;;;39.6;35.3;;;;;;;8.4;100.0;101280;;;;
2022/03/29 02:36:00;;;;;;;39.6;35.3;;;;;;;8.4;100.0;101280;;;;
2022/03/29 02:37:00;;;;;;;39.6;35.3;;;;;;;8.4;100.0;101280;;;;
2022/03/29 02:38:00;;;;;;;39.6;35.3;;;;;;;8.4;100.0;101280;;;;
2022/03/29 02:39:00;;;;;;;44.8;38.4;;;;;;;8.2;100.0;101280;;;;
2022/03/29 02:40:00;;;;;;;44.8;38.4;;;;;;;8.2;100.0;101280;;;;
2022/03/29 02:41:00;;;;;;;44.8;38.4;;;;;;;8.2;100.0;101270;;;;
2022/03/29 02:42:00;;;;;;;44.8;38.4;;;;;;;8.2;100.0;101270;;;;
2022/03/29 02:43:00;;;;;;;44.8;38.4;;;;;;;8.2;100.0;101270;;;;
2022/03/29 02:44:00;;;;;;;44.8;38.4;;;;;;;8.2;100.0;101270;;;;
2022/03/29 02:45:01;;;;;;;44.8;38.4;;;;;;;8.1;100.0;101260;;;;
2022/03/29 02:46:00;;;;;;;44.8;38.4;;;;;;;8.1;100.0;101260;;;;
2022/03/29 02:47:00;;;;;;;44.8;38.4;;;;;;;8.2;100.0;101260;;;;
2022/03/29 02:48:00;;;;;;;44.8;38.4;;;;;;;8.2;100.0;101260;;;;
2022/03/29 02:49:01;;;;;;;44.8;38.4;;;;;;;8.0;100.0;101260;;;;
2022/03/29 02:50:00;;;;;;;44.8;38.4;;;;;;;8.0;100.0;101260;;;;
2022/03/29 02:51:00;;;;;;;44.8;38.4;;;;;;;8.1;100.0;101260;;;;
2022/03/29 02:52:00;;;;;;;44.8;38.4;;;;;;;8.1;100.0;101260;;;;
2022/03/29 02:53:01;;;;;;;44.8;38.4;;;;;;;8.1;100.0;101250;;;;
2022/03/29 02:54:00;;;;;;;44.8;38.4;;;;;;;8.1;100.0;101250;;;;
2022/03/29 02:55:00;;;;;;;44.8;38.4;;;;;;;8.0;100.0;101250;;;;
2022/03/29 02:56:00;;;;;;;44.8;38.4;;;;;;;8.0;100.0;101250;;;;
2022/03/29 02:57:00;;;;;;;44.8;38.4;;;;;;;7.9;100.0;101250;;;;
2022/03/29 02:58:00;;;;;;;44.8;38.4;;;;;;;7.9;100.0;101250;;;;
2022/03/29 02:59:00;;;;;;;44.0;37.9;;;;;;;8.1;100.0;101250;;;;
2022/03/29 03:00:00;;;;;;;44.0;37.9;;;;;;;8.1;100.0;101250;;;;
2022/03/29 03:01:00;;;;;;;44.0;37.9;;;;;;;7.9;100.0;101250;;;;
2022/03/29 03:02:00;;;;;;;44.0;37.9;;;;;;;7.9;100.0;101250;;;;
2022/03/29 03:03:00;;;;;;;44.0;37.9;;;;;;;8.0;100.0;101250;;;;
2022/03/29 03:04:00;;;;;;;44.0;37.9;;;;;;;8.0;100.0;101250;;;;
2022/03/29 03:05:00;;;;;;;44.0;37.9;;;;;;;7.8;100.0;101250;;;;
2022/03/29 03:06:00;;;;;;;44.0;37.9;;;;;;;7.8;100.0;101250;;;;
2022/03/29 03:07:00;;;;;;;44.0;37.9;;;;;;;7.8;100.0;101250;;;;
2022/03/29 03:08:00;;;;;;;44.0;37.9;;;;;;;7.8;100.0;101250;;;;
2022/03/29 03:09:01;;;;;;;44.0;37.9;;;;;;;7.6;100.0;101240;;;;
2022/03/29 03:10:00;;;;;;;44.0;37.9;;;;;;;7.6;100.0;101240;;;;
2022/03/29 03:11:00;;;;;;;44.0;37.9;;;;;;;7.7;100.0;101240;;;;
2022/03/29 03:12:00;;;;;;;44.0;37.9;;;;;;;7.7;100.0;101240;;;;
2022/03/29 03:13:00;;;;;;;44.0;37.9;;;;;;;7.8;100.0;101240;;;;
2022/03/29 03:14:00;;;;;;;44.0;37.9;;;;;;;7.8;100.0;101240;;;;
2022/03/29 03:15:00;;;;;;;44.0;37.9;;;;;;;7.8;100.0;101240;;;;
2022/03/29 03:16:00;;;;;;;44.0;37.9;;;;;;;7.8;100.0;101240;;;;
2022/03/29 03:17:10;;;;;;;44.0;37.9;;;;;;;7.7;100.0;101240;;;;
2022/03/29 03:18:01;;;;;;;44.0;37.9;;;;;;;7.7;100.0;101240;;;;
2022/03/29 03:19:00;;;;;;;46.1;38.2;;;;;;;7.7;100.0;101240;;;;
2022/03/29 03:20:00;;;;;;;46.1;38.2;;;;;;;7.7;100.0;101240;;;;
2022/03/29 03:21:00;;;;;;;46.1;38.2;;;;;;;7.6;100.0;101230;;;;
2022/03/29 03:22:00;;;;;;;46.1;38.2;;;;;;;7.6;100.0;101230;;;;
2022/03/29 03:23:00;;;;;;;46.1;38.2;;;;;;;7.6;100.0;101230;;;;
2022/03/29 03:24:00;;;;;;;46.1;38.2;;;;;;;7.6;100.0;101230;;;;
2022/03/29 03:25:00;;;;;;;46.1;38.2;;;;;;;7.6;100.0;101230;;;;
2022/03/29 03:26:00;;;;;;;46.1;38.2;;;;;;;7.6;100.0;101230;;;;
2022/03/29 03:27:00;;;;;;;46.1;38.2;;;;;;;7.5;100.0;101230;;;;
2022/03/29 03:28:00;;;;;;;46.1;38.2;;;;;;;7.5;100.0;101230;;;;
2022/03/29 03:29:00;;;;;;;46.1;38.2;;;;;;;7.3;100.0;101230;;;;
2022/03/29 03:30:00;;;;;;;46.1;38.2;;;;;;;7.3;100.0;101230;;;;
2022/03/29 03:31:00;;;;;;;46.1;38.2;;;;;;;7.4;100.0;101230;;;;
2022/03/29 03:32:00;;;;;;;46.1;38.2;;;;;;;7.4;100.0;101230;;;;
2022/03/29 03:33:00;;;;;;;46.1;38.2;;;;;;;7.2;100.0;101240;;;;
2022/03/29 03:34:00;;;;;;;46.1;38.2;;;;;;;7.2;100.0;101240;;;;
2022/03/29 03:35:00;;;;;;;46.1;38.2;;;;;;;7.2;100.0;101230;;;;
2022/03/29 03:36:00;;;;;;;46.1;38.2;;;;;;;7.2;100.0;101230;;;;
2022/03/29 03:37:02;;;;;;;46.1;38.2;;;;;;;7.1;100.0;101230;;;;
2022/03/29 03:38:00;;;;;;;46.1;38.2;;;;;;;7.1;100.0;101230;;;;
2022/03/29 03:39:00;;;;;;;51.8;42.5;;;;;;;7.2;100.0;101230;;;;
2022/03/29 03:40:00;;;;;;;51.8;42.5;;;;;;;7.2;100.0;101230;;;;
2022/03/29 03:41:00;;;;;;;51.8;42.5;;;;;;;7.1;100.0;101220;;;;
2022/03/29 03:42:00;;;;;;;51.8;42.5;;;;;;;7.1;100.0;101220;;;;
2022/03/29 03:43:03;;;;;;;51.8;42.5;;;;;;;7.2;100.0;101230;;;;
2022/03/29 03:44:00;;;;;;;51.8;42.5;;;;;;;7.2;100.0;101230;;;;
2022/03/29 03:45:02;;;;;;;51.8;42.5;;;;;;;7.4;100.0;101220;;;;
2022/03/29 03:46:00;;;;;;;51.8;42.5;;;;;;;7.4;100.0;101220;;;;
2022/03/29 03:47:00;;;;;;;51.8;42.5;;;;;;;7.4;100.0;101220;;;;
2022/03/29 03:48:00;;;;;;;51.8;42.5;;;;;;;7.4;100.0;101220;;;;
2022/03/29 03:49:01;;;;;;;51.8;42.5;;;;;;;7.4;100.0;101220;;;;
2022/03/29 03:50:00;;;;;;;51.8;42.5;;;;;;;7.4;100.0;101220;;;;
2022/03/29 03:51:01;;;;;;;51.8;42.5;;;;;;;7.4;100.0;101220;;;;
2022/03/29 03:52:00;;;;;;;51.8;42.5;;;;;;;7.4;100.0;101220;;;;
2022/03/29 03:53:00;;;;;;;51.8;42.5;;;;;;;7.4;100.0;101210;;;;
2022/03/29 03:54:00;;;;;;;51.8;42.5;;;;;;;7.4;100.0;101210;;;;
2022/03/29 03:55:00;;;;;;;51.8;42.5;;;;;;;7.5;100.0;101210;;;;
2022/03/29 03:56:00;;;;;;;51.8;42.5;;;;;;;7.5;100.0;101210;;;;
2022/03/29 03:57:00;;;;;;;51.8;42.5;;;;;;;7.5;100.0;101220;;;;
2022/03/29 03:58:00;;;;;;;63.0;47.1;;;;;;;7.5;100.0;101220;;;;
2022/03/29 03:59:00;;;;;;;63.0;47.1;;;;;;;7.6;100.0;101210;;;;
2022/03/29 04:00:01;;;;;;;63.0;47.1;;;;;;;7.6;100.0;101210;;;;
2022/03/29 04:01:00;;;;;;;63.0;47.1;;;;;;;7.5;100.0;101220;;;;
2022/03/29 04:02:00;;;;;;;63.0;47.1;;;;;;;7.5;100.0;101220;;;;
2022/03/29 04:03:01;;;;;;;63.0;47.1;;;;;;;7.6;100.0;101210;;;;
2022/03/29 04:04:00;;;;;;;63.0;47.1;;;;;;;7.6;100.0;101210;;;;
2022/03/29 04:05:00;;;;;;;63.0;47.1;;;;;;;7.5;100.0;101210;;;;
2022/03/29 04:06:00;;;;;;;63.0;47.1;;;;;;;7.5;100.0;101210;;;;
2022/03/29 04:07:00;;;;;;;63.0;47.1;;;;;;;7.5;100.0;101200;;;;
2022/03/29 04:08:00;;;;;;;63.0;47.1;;;;;;;7.5;100.0;101200;;;;
2022/03/29 04:09:00;;;;;;;63.0;47.1;;;;;;;7.4;100.0;101200;;;;
2022/03/29 04:10:00;;;;;;;63.0;47.1;;;;;;;7.4;100.0;101200;;;;
2022/03/29 04:11:00;;;;;;;63.0;47.1;;;;;;;7.3;100.0;101200;;;;
2022/03/29 04:12:00;;;;;;;63.0;47.1;;;;;;;7.3;100.0;101200;;;;
2022/03/29 04:13:01;;;;;;;63.0;47.1;;;;;;;7.3;100.0;101200;;;;
2022/03/29 04:14:00;;;;;;;63.0;47.1;;;;;;;7.3;100.0;101200;;;;
2022/03/29 04:15:00;;;;;;;63.0;47.1;;;;;;;7.3;100.0;101200;;;;
2022/03/29 04:16:03;;;;;;;63.0;47.1;;;;;;;7.3;100.0;101200;;;;
2022/03/29 04:17:00;;;;;;;63.0;47.1;;;;;;;7.4;100.0;101200;;;;
2022/03/29 04:18:01;;;;;;;61.2;46.8;;;;;;;7.4;100.0;101200;;;;
2022/03/29 04:19:00;;;;;;;61.2;46.8;;;;;;;7.3;100.0;101190;;;;
2022/03/29 04:20:01;;;;;;;61.2;46.8;;;;;;;7.3;100.0;101190;;;;
2022/03/29 04:21:01;;;;;;;61.2;46.8;;;;;;;7.4;100.0;101190;;;;
2022/03/29 04:22:00;;;;;;;61.2;46.8;;;;;;;7.4;100.0;101190;;;;
2022/03/29 04:23:00;;;;;;;61.2;46.8;;;;;;;7.6;100.0;101190;;;;
2022/03/29 04:24:00;;;;;;;61.2;46.8;;;;;;;7.6;100.0;101190;;;;
2022/03/29 04:25:00;;;;;;;61.2;46.8;;;;;;;7.7;100.0;101190;;;;
2022/03/29 04:26:00;;;;;;;61.2;46.8;;;;;;;7.7;100.0;101190;;;;
2022/03/29 04:27:00;;;;;;;61.2;46.8;;;;;;;7.5;100.0;101180;;;;
2022/03/29 04:28:00;;;;;;;61.2;46.8;;;;;;;7.5;100.0;101180;;;;
2022/03/29 04:29:00;;;;;;;61.2;46.8;;;;;;;7.5;100.0;101180;;;;
2022/03/29 04:30:00;;;;;;;61.2;46.8;;;;;;;7.5;100.0;101180;;;;
2022/03/29 04:31:00;;;;;;;61.2;46.8;;;;;;;7.6;100.0;101180;;;;
2022/03/29 04:32:00;;;;;;;61.2;46.8;;;;;;;7.6;100.0;101180;;;;
2022/03/29 04:33:00;;;;;;;61.2;46.8;;;;;;;7.6;100.0;101180;;;;
2022/03/29 04:34:00;;;;;;;61.2;46.8;;;;;;;7.6;100.0;101180;;;;
2022/03/29 04:35:00;;;;;;;61.2;46.8;;;;;;;7.8;100.0;101180;;;;
2022/03/29 04:36:00;;;;;;;61.2;46.8;;;;;;;7.8;100.0;101180;;;;
2022/03/29 04:37:00;;;;;;;61.2;46.8;;;;;;;7.6;100.0;101170;;;;
2022/03/29 04:38:00;;;;;;;62.0;46.8;;;;;;;7.6;100.0;101170;;;;
2022/03/29 04:39:00;;;;;;;62.0;46.8;;;;;;;7.4;100.0;101180;;;;
2022/03/29 04:40:00;;;;;;;62.0;46.8;;;;;;;7.4;100.0;101180;;;;
2022/03/29 04:41:00;;;;;;;62.0;46.8;;;;;;;7.3;100.0;101180;;;;
2022/03/29 04:42:09;;;;;;;62.0;46.8;;;;;;;7.3;100.0;101180;;;;
2022/03/29 04:43:00;;;;;;;62.0;46.8;;;;;;;7.3;100.0;101180;;;;
2022/03/29 04:44:00;;;;;;;62.0;46.8;;;;;;;7.3;100.0;101180;;;;
2022/03/29 04:45:00;;;;;;;62.0;46.8;;;;;;;7.4;100.0;101180;;;;
2022/03/29 04:46:02;;;;;;;62.0;46.8;;;;;;;7.4;100.0;101180;;;;
2022/03/29 04:47:00;;;;;;;62.0;46.8;;;;;;;7.5;100.0;101170;;;;
2022/03/29 04:48:00;;;;;;;62.0;46.8;;;;;;;7.5;100.0;101170;;;;
2022/03/29 04:49:04;;;;;;;62.0;46.8;;;;;;;7.4;100.0;101170;;;;
2022/03/29 04:50:00;;;;;;;62.0;46.8;;;;;;;7.4;100.0;101170;;;;
2022/03/29 04:51:00;;;;;;;62.0;46.8;;;;;;;7.5;100.0;101170;;;;
2022/03/29 04:52:00;;;;;;;62.0;46.8;;;;;;;7.5;100.0;101170;;;;
2022/03/29 04:53:00;;;;;;;62.0;46.8;;;;;;;7.5;100.0;101170;;;;
2022/03/29 04:54:01;;;;;;;62.0;46.8;;;;;;;7.5;100.0;101170;;;;
2022/03/29 04:55:00;;;;;;;62.0;46.8;;;;;;;7.4;100.0;101170;;;;
2022/03/29 04:56:00;;;;;;;62.0;46.8;;;;;;;7.4;100.0;101170;;;;
2022/03/29 04:57:00;;;;;;;62.0;46.8;;;;;;;7.5;100.0;101170;;;;
2022/03/29 04:58:00;;;;;;;69.8;50.9;;;;;;;7.5;100.0;101170;;;;
2022/03/29 04:59:00;;;;;;;69.8;50.9;;;;;;;7.5;100.0;101170;;;;
2022/03/29 05:00:00;;;;;;;69.8;50.9;;;;;;;7.5;100.0;101170;;;;
2022/03/29 05:01:00;;;;;;;69.8;50.9;;;;;;;7.5;100.0;101170;;;;
2022/03/29 05:02:00;;;;;;;69.8;50.9;;;;;;;7.5;100.0;101170;;;;
2022/03/29 05:03:00;;;;;;;69.8;50.9;;;;;;;7.4;100.0;101170;;;;
2022/03/29 05:04:00;;;;;;;69.8;50.9;;;;;;;7.4;100.0;101170;;;;
2022/03/29 05:05:06;;;;;;;69.8;50.9;;;;;;;7.3;100.0;101170;;;;
2022/03/29 05:06:00;;;;;;;69.8;50.9;;;;;;;7.3;100.0;101170;;;;
2022/03/29 05:07:00;;;;;;;69.8;50.9;;;;;;;7.6;100.0;101170;;;;
2022/03/29 05:08:00;;;;;;;69.8;50.9;;;;;;;7.6;100.0;101170;;;;
2022/03/29 05:09:00;;;;;;;69.8;50.9;;;;;;;7.3;100.0;101160;;;;
2022/03/29 05:10:00;;;;;;;69.8;50.9;;;;;;;7.3;100.0;101160;;;;
2022/03/29 05:11:00;;;;;;;69.8;50.9;;;;;;;7.3;100.0;101160;;;;
2022/03/29 05:12:00;;;;;;;69.8;50.9;;;;;;;7.3;100.0;101160;;;;
2022/03/29 05:13:00;;;;;;;69.8;50.9;;;;;;;7.4;100.0;101170;;;;
2022/03/29 05:14:00;;;;;;;69.8;50.9;;;;;;;7.4;100.0;101170;;;;
2022/03/29 05:15:00;;;;;;;69.8;50.9;;;;;;;7.4;100.0;101160;;;;
2022/03/29 05:16:01;;;;;;;69.8;50.9;;;;;;;7.4;100.0;101160;;;;
2022/03/29 05:17:00;;;;;;;69.8;50.9;;;;;;;7.4;100.0;101160;;;;
2022/03/29 05:18:00;;;;;;;66.1;49.7;;;;;;;7.4;100.0;101160;;;;
2022/03/29 05:19:00;;;;;;;66.1;49.7;;;;;;;7.5;100.0;101160;;;;
2022/03/29 05:20:00;;;;;;;66.1;49.7;;;;;;;7.5;100.0;101160;;;;
2022/03/29 05:21:00;;;;;;;66.1;49.7;;;;;;;7.4;100.0;101160;;;;
2022/03/29 05:22:00;;;;;;;66.1;49.7;;;;;;;7.4;100.0;101160;;;;
2022/03/29 05:23:02;;;;;;;66.1;49.7;;;;;;;7.4;100.0;101160;;;;
2022/03/29 05:24:00;;;;;;;66.1;49.7;;;;;;;7.4;100.0;101160;;;;
2022/03/29 05:25:00;;;;;;;66.1;49.7;;;;;;;7.1;100.0;101160;;;;
2022/03/29 05:26:00;;;;;;;66.1;49.7;;;;;;;7.1;100.0;101160;;;;
2022/03/29 05:27:00;;;;;;;66.1;49.7;;;;;;;7.1;100.0;101160;;;;
2022/03/29 05:28:00;;;;;;;66.1;49.7;;;;;;;7.1;100.0;101160;;;;
2022/03/29 05:29:02;;;;;;;66.1;49.7;;;;;;;7.1;100.0;101170;;;;
2022/03/29 05:30:00;;;;;;;66.1;49.7;;;;;;;7.1;100.0;101170;;;;
2022/03/29 05:31:00;;;;;;;66.1;49.7;;;;;;;7.3;100.0;101160;;;;
2022/03/29 05:32:00;;;;;;;66.1;49.7;;;;;;;7.3;100.0;101160;;;;
2022/03/29 05:33:00;;;;;;;66.1;49.7;;;;;;;7.3;100.0;101160;;;;
2022/03/29 05:34:00;;;;;;;66.1;49.7;;;;;;;7.3;100.0;101160;;;;
2022/03/29 05:35:00;;;;;;;66.1;49.7;;;;;;;7.3;100.0;101160;;;;
2022/03/29 05:36:01;;;;;;;66.1;49.7;;;;;;;7.3;100.0;101160;;;;
2022/03/29 05:37:00;;;;;;;66.1;49.7;;;;;;;7.2;100.0;101160;;;;
2022/03/29 05:38:02;;;;;;;71.1;46.6;;;;;;;7.2;100.0;101160;;;;
2022/03/29 05:39:05;;;;;;;71.1;46.6;;;;;;;7.2;100.0;101160;;;;
2022/03/29 05:40:00;;;;;;;71.1;46.6;;;;;;;7.2;100.0;101160;;;;
2022/03/29 05:41:00;;;;;;;71.1;46.6;;;;;;;7.0;100.0;101160;;;;
2022/03/29 05:42:00;;;;;;;71.1;46.6;;;;;;;7.0;100.0;101160;;;;
2022/03/29 05:43:00;;;;;;;71.1;46.6;;;;;;;7.1;100.0;101160;;;;
2022/03/29 05:44:00;;;;;;;71.1;46.6;;;;;;;7.1;100.0;101160;;;;
2022/03/29 05:45:00;;;;;;;71.1;46.6;;;;;;;7.2;100.0;101150;;;;
2022/03/29 05:49:00;;;;;;;71.1;46.6;;;;;;;7.5;100.0;101160;;;;
2022/03/29 05:50:00;;;;;;;71.1;46.6;;;;;;;7.5;100.0;101160;;;;
2022/03/29 05:51:00;;;;;;;71.1;46.6;;;;;;;7.5;100.0;101160;;;;
2022/03/29 05:52:00;;;;;;;71.1;46.6;;;;;;;7.5;100.0;101160;;;;
2022/03/29 05:53:02;;;;;;;71.1;46.6;;;;;;;7.6;100.0;101160;;;;
2022/03/29 05:54:01;;;;;;;71.1;46.6;;;;;;;7.6;100.0;101160;;;;
2022/03/29 05:55:00;;;;;;;71.1;46.6;;;;;;;7.6;100.0;101160;;;;
2022/03/29 05:56:00;;;;;;;71.1;46.6;;;;;;;7.6;100.0;101160;;;;
2022/03/29 05:57:00;;;;;;;71.1;46.6;;;;;;;7.5;100.0;101150;;;;
2022/03/29 05:58:00;;;;;;;63.1;45.3;;;;;;;7.5;100.0;101150;;;;
2022/03/29 05:59:00;;;;;;;63.1;45.3;;;;;;;7.4;100.0;101150;;;;
2022/03/29 06:00:00;;;;;;;63.1;45.3;;;;;;;7.4;100.0;101150;;;;
2022/03/29 06:01:00;;;;;;;63.1;45.3;;;;;;;7.5;100.0;101150;;;;
2022/03/29 06:02:04;;;;;;;63.1;45.3;;;;;;;7.5;100.0;101150;;;;
2022/03/29 06:03:00;;;;;;;63.1;45.3;;;;;;;7.4;100.0;101150;;;;
2022/03/29 06:04:01;;;;;;;63.1;45.3;;;;;;;7.4;100.0;101150;;;;
2022/03/29 06:05:00;;;;;;;63.1;45.3;;;;;;;7.5;100.0;101150;;;;
2022/03/29 06:06:00;;;;;;;63.1;45.3;;;;;;;7.5;100.0;101150;;;;
2022/03/29 06:07:00;;;;;;;63.1;45.3;;;;;;;7.5;100.0;101150;;;;
2022/03/29 06:08:00;;;;;;;63.1;45.3;;;;;;;7.5;100.0;101150;;;;
2022/03/29 06:09:00;;;;;;;63.1;45.3;;;;;;;7.6;100.0;101150;;;;
2022/03/29 06:10:00;;;;;;;63.1;45.3;;;;;;;7.6;100.0;101150;;;;
2022/03/29 06:11:00;;;;;;;63.1;45.3;;;;;;;7.6;100.0;101150;;;;
2022/03/29 06:12:02;;;;;;;63.1;45.3;;;;;;;7.6;100.0;101150;;;;
2022/03/29 06:13:00;;;;;;;63.1;45.3;;;;;;;7.5;100.0;101150;;;;
2022/03/29 06:14:01;;;;;;;63.1;45.3;;;;;;;7.5;100.0;101150;;;;
2022/03/29 06:15:02;;;;;;;63.1;45.3;;;;;;;7.3;100.0;101140;;;;
2022/03/29 06:16:00;;;;;;;63.1;45.3;;;;;;;7.3;100.0;101140;;;;
2022/03/29 06:17:00;;;;;;;63.1;45.3;;;;;;;7.2;100.0;101150;;;;
2022/03/29 06:18:00;;;;;;;65.9;43.7;;;;;;;7.2;100.0;101150;;;;
2022/03/29 06:19:00;;;;;;;65.9;43.7;;;;;;;7.1;100.0;101150;;;;
2022/03/29 06:20:03;;;;;;;65.9;43.7;;;;;;;7.1;100.0;101150;;;;
2022/03/29 06:21:00;;;;;;;65.9;43.7;;;;;;;7.0;100.0;101150;;;;